createdAt,value
2023-07-22T00:02:09.434Z,23.84
2023-07-22T00:04:43.446Z,23.84
2023-07-22T00:07:14.668Z,23.83
2023-07-22T00:09:51.607Z,23.82
2023-07-22T00:12:34.425Z,23.82
2023-07-22T00:15:07.670Z,23.80
2023-07-22T00:17:39.960Z,23.79
2023-07-22T00:20:16.722Z,23.78
2023-07-22T00:22:51.582Z,23.77
2023-07-22T00:25:29.201Z,23.75
2023-07-22T00:28:00.868Z,23.74
2023-07-22T00:30:35.516Z,23.72
2023-07-22T00:33:08.083Z,23.71
2023-07-22T00:35:39.670Z,23.71
2023-07-22T00:38:11.880Z,23.71
2023-07-22T00:40:44.763Z,23.69
2023-07-22T00:43:15.584Z,23.65
2023-07-22T00:45:46.277Z,23.62
2023-07-22T00:48:17.926Z,23.59
2023-07-22T00:50:51.290Z,23.56
2023-07-22T00:53:21.927Z,23.53
2023-07-22T00:55:52.901Z,23.51
2023-07-22T00:58:23.544Z,23.48
2023-07-22T01:00:54.645Z,23.45
2023-07-22T01:03:26.705Z,23.43
2023-07-22T01:05:59.735Z,23.40
2023-07-22T01:08:30.252Z,23.38
2023-07-22T01:11:01.049Z,23.37
2023-07-22T01:13:34.690Z,23.34
2023-07-22T01:16:06.117Z,23.33
2023-07-22T01:18:37.234Z,23.31
2023-07-22T01:21:08.865Z,23.29
2023-07-22T01:23:41.343Z,23.27
2023-07-22T01:26:12.489Z,23.25
2023-07-22T01:28:43.072Z,23.26
2023-07-22T01:31:14.666Z,23.26
2023-07-22T01:33:48.558Z,23.24
2023-07-22T01:36:19.334Z,23.22
2023-07-22T01:38:51.343Z,23.19
2023-07-22T01:41:22.029Z,23.18
2023-07-22T01:43:52.723Z,23.17
2023-07-22T01:46:23.379Z,23.16
2023-07-22T01:48:57.305Z,23.15
2023-07-22T01:51:27.913Z,23.13
2023-07-22T01:53:58.739Z,23.12
2023-07-22T01:56:29.807Z,23.11
2023-07-22T01:59:01.586Z,23.13
2023-07-22T02:01:32.210Z,23.14
2023-07-22T02:04:04.035Z,23.14
2023-07-22T02:06:35.997Z,23.15
2023-07-22T02:09:09.289Z,23.16
2023-07-22T02:11:40.688Z,23.18
2023-07-22T02:14:14.209Z,23.19
2023-07-22T02:16:46.427Z,23.21
2023-07-22T02:19:17.097Z,23.23
2023-07-22T02:21:49.101Z,23.24
2023-07-22T02:24:19.766Z,23.27
2023-07-22T02:26:51.936Z,23.32
2023-07-22T02:29:22.901Z,23.37
2023-07-22T02:31:57.645Z,23.44
2023-07-22T02:34:28.312Z,23.52
2023-07-22T02:36:58.878Z,23.77
2023-07-22T02:39:29.724Z,24.21
2023-07-22T02:42:00.932Z,24.69
2023-07-22T02:44:31.663Z,25.13
2023-07-22T02:47:02.225Z,25.56
2023-07-22T02:49:33.054Z,25.94
2023-07-22T02:52:08.030Z,26.35
2023-07-22T02:54:45.026Z,26.78
2023-07-22T02:57:16.888Z,27.21
2023-07-22T02:59:47.231Z,27.63
2023-07-22T03:02:18.100Z,28.03
2023-07-22T03:04:48.742Z,28.47
2023-07-22T03:07:21.239Z,28.86
2023-07-22T03:09:51.882Z,29.20
2023-07-22T03:12:22.208Z,29.52
2023-07-22T03:14:57.494Z,29.85
2023-07-22T03:17:33.503Z,30.20
2023-07-22T03:20:09.872Z,30.52
2023-07-22T03:22:41.111Z,30.88
2023-07-22T03:25:12.572Z,31.15
2023-07-22T03:27:44.910Z,31.46
2023-07-22T03:30:18.536Z,31.78
2023-07-22T03:32:52.207Z,32.09
2023-07-22T03:35:23.095Z,32.42
2023-07-22T03:37:57.324Z,32.81
2023-07-22T03:40:31.640Z,33.27
2023-07-22T03:43:05.409Z,33.74
2023-07-22T03:45:37.987Z,34.17
2023-07-22T03:48:11.279Z,34.58
2023-07-22T03:50:42.231Z,34.93
2023-07-22T03:53:12.595Z,35.18
2023-07-22T03:55:43.045Z,35.40
2023-07-22T03:58:13.961Z,35.48
2023-07-22T04:00:45.824Z,35.71
2023-07-22T04:03:17.450Z,36.03
2023-07-22T04:05:56.628Z,36.47
2023-07-22T04:08:28.557Z,37.04
2023-07-22T04:11:01.346Z,37.38
2023-07-22T04:13:34.820Z,37.58
2023-07-22T04:16:06.073Z,37.87
2023-07-22T04:18:36.699Z,38.23
2023-07-22T04:21:07.098Z,38.47
2023-07-22T04:23:38.580Z,38.82
2023-07-22T04:26:10.080Z,39.13
2023-07-22T04:28:42.950Z,39.43
2023-07-22T04:31:14.149Z,39.91
2023-07-22T04:33:45.046Z,40.54
2023-07-22T04:36:15.902Z,40.97
2023-07-22T04:38:46.489Z,41.30
2023-07-22T04:41:17.106Z,41.47
2023-07-22T04:43:48.502Z,41.66
2023-07-22T04:46:19.719Z,41.92
2023-07-22T04:48:51.743Z,42.19
2023-07-22T04:51:22.217Z,42.37
2023-07-22T04:53:53.056Z,42.56
2023-07-22T04:56:25.047Z,43.21
2023-07-22T04:58:56.000Z,43.88
2023-07-22T05:01:26.985Z,44.27
2023-07-22T05:03:58.939Z,44.54
2023-07-22T05:06:31.744Z,44.95
2023-07-22T05:09:06.035Z,45.43
2023-07-22T05:11:36.401Z,45.81
2023-07-22T05:14:11.703Z,46.01
2023-07-22T05:16:42.141Z,46.14
2023-07-22T05:19:12.577Z,46.22
2023-07-22T05:21:43.895Z,46.48
2023-07-22T05:24:15.255Z,46.73
2023-07-22T05:26:58.962Z,46.73
2023-07-22T05:29:38.573Z,46.90
2023-07-22T05:32:27.363Z,47.08
2023-07-22T05:35:03.733Z,47.38
2023-07-22T05:37:36.470Z,47.66
2023-07-22T05:40:13.444Z,47.89
2023-07-22T05:42:50.107Z,48.02
2023-07-22T05:45:24.301Z,48.18
2023-07-22T05:47:57.438Z,48.10
2023-07-22T05:50:30.686Z,47.85
2023-07-22T05:53:04.896Z,47.81
2023-07-22T05:55:37.656Z,47.95
2023-07-22T05:58:18.911Z,48.16
2023-07-22T06:00:59.266Z,48.34
2023-07-22T06:03:32.173Z,48.59
2023-07-22T06:06:02.959Z,48.38
2023-07-22T06:08:34.051Z,48.29
2023-07-22T06:11:06.410Z,48.35
2023-07-22T06:13:37.560Z,48.26
2023-07-22T06:16:09.199Z,48.29
2023-07-22T06:18:41.732Z,48.07
2023-07-22T06:21:14.339Z,47.89
2023-07-22T06:23:46.515Z,48.12
2023-07-22T06:26:17.264Z,48.18
2023-07-22T06:28:48.270Z,47.90
2023-07-22T06:31:19.775Z,47.85
2023-07-22T06:33:50.780Z,48.07
2023-07-22T06:36:21.802Z,48.31
2023-07-22T06:38:52.540Z,48.85
2023-07-22T06:41:25.526Z,49.38
2023-07-22T06:43:56.753Z,49.96
2023-07-22T06:46:28.100Z,50.34
2023-07-22T06:49:00.764Z,50.48
2023-07-22T06:51:33.987Z,50.49
2023-07-22T06:54:05.111Z,50.64
2023-07-22T06:56:35.639Z,50.99
2023-07-22T06:59:09.942Z,51.44
2023-07-22T07:01:40.272Z,51.64
2023-07-22T07:04:10.848Z,51.29
2023-07-22T07:06:41.877Z,51.04
2023-07-22T07:09:13.164Z,51.17
2023-07-22T07:11:44.057Z,51.46
2023-07-22T07:14:15.203Z,51.71
2023-07-22T07:16:49.103Z,51.51
2023-07-22T07:19:19.660Z,49.94
2023-07-22T07:21:53.728Z,48.02
2023-07-22T07:24:31.929Z,46.29
2023-07-22T07:27:03.102Z,44.61
2023-07-22T07:29:52.980Z,42.94
2023-07-22T07:32:27.405Z,41.60
2023-07-22T07:35:02.315Z,40.67
2023-07-22T07:37:34.577Z,39.85
2023-07-22T07:40:07.234Z,39.26
2023-07-22T07:42:41.987Z,38.76
2023-07-22T07:45:28.172Z,38.58
2023-07-22T07:47:59.300Z,38.53
2023-07-22T07:50:33.734Z,38.47
2023-07-22T07:53:05.268Z,38.28
2023-07-22T07:55:36.181Z,38.17
2023-07-22T07:58:11.269Z,37.97
2023-07-22T08:00:42.324Z,37.90
2023-07-22T08:03:16.981Z,37.64
2023-07-22T08:05:49.849Z,37.40
2023-07-22T08:08:34.727Z,37.33
2023-07-22T08:11:20.178Z,37.27
2023-07-22T08:13:57.871Z,37.33
2023-07-22T08:16:37.555Z,37.42
2023-07-22T08:19:19.732Z,37.54
2023-07-22T08:21:52.080Z,37.34
2023-07-22T08:24:23.485Z,37.06
2023-07-22T08:27:05.498Z,36.92
2023-07-22T08:29:41.428Z,36.94
2023-07-22T08:32:17.946Z,37.01
2023-07-22T08:34:54.183Z,37.14
2023-07-22T08:38:09.224Z,37.22
2023-07-22T08:41:00.653Z,37.35
2023-07-22T08:43:33.702Z,37.33
2023-07-22T08:46:05.456Z,37.24
2023-07-22T08:48:38.740Z,37.23
2023-07-22T08:51:23.768Z,37.22
2023-07-22T08:54:11.232Z,37.28
2023-07-22T08:56:47.950Z,37.38
2023-07-22T08:59:29.093Z,37.42
2023-07-22T09:02:09.376Z,37.37
2023-07-22T09:04:42.927Z,37.30
2023-07-22T09:07:35.419Z,37.33
2023-07-22T09:10:18.245Z,37.33
2023-07-22T09:12:50.312Z,37.31
2023-07-22T09:15:21.822Z,37.29
2023-07-22T09:17:54.968Z,37.26
2023-07-22T09:20:29.667Z,37.24
2023-07-22T09:23:12.580Z,37.21
2023-07-22T09:25:48.909Z,37.24
2023-07-22T09:28:22.408Z,37.29
2023-07-22T09:31:04.845Z,37.32
2023-07-22T09:33:40.022Z,37.30
2023-07-22T09:36:12.746Z,37.31
2023-07-22T09:38:44.140Z,37.35
2023-07-22T09:41:21.629Z,37.39
2023-07-22T09:43:52.277Z,37.44
2023-07-22T09:46:26.923Z,37.50
2023-07-22T09:49:07.460Z,37.57
2023-07-22T09:51:53.076Z,37.56
2023-07-22T09:54:34.213Z,37.39
2023-07-22T09:57:07.309Z,37.23
2023-07-22T09:59:39.030Z,37.13
2023-07-22T10:02:14.319Z,37.07
2023-07-22T10:04:47.635Z,37.01
2023-07-22T10:07:19.129Z,37.04
2023-07-22T10:09:51.643Z,37.08
2023-07-22T10:12:22.383Z,37.02
2023-07-22T10:14:55.371Z,37.02
2023-07-22T10:17:28.104Z,37.01
2023-07-22T10:20:05.051Z,37.02
2023-07-22T10:22:38.516Z,37.05
2023-07-22T10:25:09.940Z,37.05
2023-07-22T10:27:41.822Z,37.05
2023-07-22T10:30:13.708Z,37.06
2023-07-22T10:32:48.393Z,37.07
2023-07-22T10:35:26.176Z,37.06
2023-07-22T10:37:57.317Z,37.03
2023-07-22T10:40:32.291Z,36.99
2023-07-22T10:43:06.368Z,36.99
2023-07-22T10:45:42.624Z,36.96
2023-07-22T10:48:18.841Z,36.88
2023-07-22T10:51:01.347Z,36.84
2023-07-22T10:53:33.244Z,36.81
2023-07-22T10:56:08.884Z,36.69
2023-07-22T10:58:57.218Z,36.66
2023-07-22T11:01:34.551Z,36.51
2023-07-22T11:04:13.177Z,36.45
2023-07-22T11:06:59.397Z,36.46
2023-07-22T11:09:42.103Z,36.53
2023-07-22T11:12:23.198Z,36.55
2023-07-22T11:15:05.693Z,36.57
2023-07-22T11:17:37.856Z,36.57
2023-07-22T11:20:14.085Z,36.55
2023-07-22T11:22:49.033Z,36.56
2023-07-22T11:25:24.387Z,36.65
2023-07-22T11:28:08.572Z,36.73
2023-07-22T11:31:08.780Z,36.85
2023-07-22T11:34:10.303Z,37.02
2023-07-22T11:36:42.719Z,37.18
2023-07-22T11:39:15.066Z,37.33
2023-07-22T11:41:46.224Z,37.38
2023-07-22T11:47:14.272Z,37.41
2023-07-22T11:49:51.742Z,37.48
2023-07-22T11:52:24.688Z,37.53
2023-07-22T11:55:19.610Z,37.50
2023-07-22T11:58:06.802Z,37.37
2023-07-22T12:01:26.874Z,37.37
2023-07-22T12:04:02.325Z,37.35
2023-07-22T12:06:32.576Z,37.34
2023-07-22T12:09:30.908Z,37.34
2023-07-22T12:12:11.170Z,37.35
2023-07-22T12:14:45.410Z,37.35
2023-07-22T12:17:22.955Z,37.37
2023-07-22T12:20:04.185Z,37.44
2023-07-22T12:22:36.742Z,37.49
2023-07-22T12:25:09.594Z,37.52
2023-07-22T12:27:40.601Z,37.53
2023-07-22T12:30:12.682Z,37.50
2023-07-22T12:32:43.708Z,37.52
2023-07-22T12:35:15.052Z,37.56
2023-07-22T12:37:47.115Z,37.59
2023-07-22T12:40:18.228Z,37.65
2023-07-22T12:42:51.559Z,37.67
2023-07-22T12:45:21.970Z,37.61
2023-07-22T12:47:53.354Z,37.49
2023-07-22T12:50:24.704Z,37.45
2023-07-22T12:52:55.654Z,37.45
2023-07-22T12:55:27.520Z,37.43
2023-07-22T12:58:05.882Z,37.38
2023-07-22T13:00:42.108Z,37.32
2023-07-22T13:03:20.427Z,37.35
2023-07-22T13:06:02.672Z,37.41
2023-07-22T13:08:36.298Z,37.39
2023-07-22T13:11:12.010Z,37.36
2023-07-22T13:13:44.419Z,37.35
2023-07-22T13:16:15.368Z,37.31
2023-07-22T13:18:51.565Z,37.31
2023-07-22T13:21:35.270Z,37.30
2023-07-22T13:24:08.261Z,37.25
2023-07-22T13:26:54.391Z,37.28
2023-07-22T13:29:25.733Z,37.32
2023-07-22T13:31:57.329Z,37.33
2023-07-22T13:34:29.457Z,37.32
2023-07-22T13:37:04.012Z,37.32
2023-07-22T13:39:36.167Z,37.36
2023-07-22T13:42:16.577Z,37.41
2023-07-22T13:44:49.780Z,37.44
2023-07-22T13:47:20.552Z,37.47
2023-07-22T13:49:54.045Z,37.46
2023-07-22T13:52:27.274Z,37.40
2023-07-22T13:54:58.235Z,37.32
2023-07-22T13:57:35.423Z,37.29
2023-07-22T14:00:09.392Z,37.27
2023-07-22T14:02:40.904Z,37.26
2023-07-22T14:05:12.253Z,37.26
2023-07-22T14:07:45.490Z,37.17
2023-07-22T14:10:16.498Z,37.18
2023-07-22T14:12:48.199Z,37.28
2023-07-22T14:15:18.982Z,37.30
2023-07-22T14:17:50.350Z,37.30
2023-07-22T14:20:24.295Z,37.29
2023-07-22T14:22:55.271Z,37.19
2023-07-22T14:25:26.884Z,37.05
2023-07-22T14:27:57.813Z,37.02
2023-07-22T14:30:28.808Z,37.01
2023-07-22T14:33:00.224Z,36.89
2023-07-22T14:35:31.171Z,36.66
2023-07-22T14:38:09.058Z,36.48
2023-07-22T14:40:41.660Z,36.30
2023-07-22T14:43:15.594Z,36.14
2023-07-22T14:45:46.825Z,36.04
2023-07-22T14:48:24.849Z,36.05
2023-07-22T14:50:55.964Z,36.08
2023-07-22T14:53:26.651Z,36.12
2023-07-22T14:55:58.040Z,36.16
2023-07-22T14:58:29.028Z,36.19
2023-07-22T15:01:03.750Z,36.20
2023-07-22T15:03:34.878Z,36.15
2023-07-22T15:06:07.990Z,36.13
2023-07-22T15:09:02.030Z,36.09
2023-07-22T15:11:40.758Z,36.05
2023-07-22T15:14:12.022Z,36.03
2023-07-22T15:16:44.109Z,35.99
2023-07-22T15:19:24.528Z,35.99
2023-07-22T15:21:59.319Z,35.96
2023-07-22T15:24:31.395Z,35.92
2023-07-22T15:27:05.002Z,35.83
2023-07-22T15:29:35.363Z,35.77
2023-07-22T15:32:07.730Z,35.72
2023-07-22T15:34:39.198Z,35.66
2023-07-22T15:37:09.886Z,35.59
2023-07-22T15:39:41.722Z,35.48
2023-07-22T15:42:12.647Z,35.39
2023-07-22T15:44:43.300Z,35.30
2023-07-22T15:47:13.930Z,35.21
2023-07-22T15:49:46.136Z,35.10
2023-07-22T15:52:16.878Z,35.00
2023-07-22T15:54:52.502Z,34.89
2023-07-22T15:57:21.718Z,34.77
2023-07-22T15:59:56.165Z,34.66
2023-07-22T16:02:27.010Z,34.56
2023-07-22T16:04:57.497Z,34.47
2023-07-22T16:07:28.035Z,34.39
2023-07-22T16:10:01.755Z,34.31
2023-07-22T16:12:32.326Z,34.19
2023-07-22T16:15:07.262Z,34.05
2023-07-22T16:17:40.110Z,33.93
2023-07-22T16:20:13.765Z,33.81
2023-07-22T16:22:45.585Z,33.67
2023-07-22T16:25:16.101Z,33.55
2023-07-22T16:27:47.619Z,33.41
2023-07-22T16:30:20.614Z,33.30
2023-07-22T16:32:53.937Z,33.21
2023-07-22T16:35:26.957Z,33.12
2023-07-22T16:38:01.109Z,33.04
2023-07-22T16:40:33.439Z,32.96
2023-07-22T16:43:04.320Z,32.87
2023-07-22T16:45:34.861Z,32.80
2023-07-22T16:48:10.472Z,32.73
2023-07-22T16:50:40.947Z,32.66
2023-07-22T16:53:16.944Z,32.59
2023-07-22T16:55:48.339Z,32.52
2023-07-22T16:58:19.118Z,32.48
2023-07-22T17:00:49.968Z,32.41
2023-07-22T17:03:21.259Z,32.34
2023-07-22T17:05:54.737Z,32.26
2023-07-22T17:08:27.812Z,32.17
2023-07-22T17:10:59.629Z,32.09
2023-07-22T17:13:29.896Z,32.01
2023-07-22T17:16:02.989Z,31.95
2023-07-22T17:18:33.287Z,31.89
2023-07-22T17:21:03.850Z,31.85
2023-07-22T17:23:34.643Z,31.80
2023-07-22T17:26:05.525Z,31.75
2023-07-22T17:28:35.898Z,31.68
2023-07-22T17:31:07.553Z,31.64
2023-07-22T17:33:38.408Z,31.59
2023-07-22T17:36:10.576Z,31.53
2023-07-22T17:38:46.669Z,31.44
2023-07-22T17:41:19.286Z,31.37
2023-07-22T17:43:49.993Z,31.28
2023-07-22T17:46:20.938Z,31.19
2023-07-22T17:49:00.293Z,31.10
2023-07-22T17:51:31.766Z,31.02
2023-07-22T17:54:03.683Z,30.93
2023-07-22T17:56:37.128Z,30.86
2023-07-22T17:59:08.268Z,30.80
2023-07-22T18:01:38.695Z,30.75
2023-07-22T18:04:10.812Z,30.71
2023-07-22T18:06:44.388Z,30.64
2023-07-22T18:09:15.310Z,30.60
2023-07-22T18:11:54.293Z,30.54
2023-07-22T18:14:26.981Z,30.48
2023-07-22T18:16:57.540Z,30.44
2023-07-22T18:19:32.860Z,30.39
2023-07-22T18:22:09.160Z,30.35
2023-07-22T18:24:56.273Z,30.28
2023-07-22T18:27:31.281Z,30.19
2023-07-22T18:30:02.428Z,30.12
2023-07-22T18:32:33.996Z,30.05
2023-07-22T18:35:07.047Z,29.97
2023-07-22T18:37:39.773Z,29.91
2023-07-22T18:40:12.310Z,29.85
2023-07-22T18:42:44.832Z,29.78
2023-07-22T18:45:15.924Z,29.72
2023-07-22T18:47:47.431Z,29.61
2023-07-22T18:50:19.988Z,29.49
2023-07-22T18:52:50.418Z,29.40
2023-07-22T18:55:23.252Z,29.33
2023-07-22T18:57:56.558Z,29.24
2023-07-22T19:00:27.935Z,29.16
2023-07-22T19:03:00.350Z,29.08
2023-07-22T19:05:31.417Z,29.00
2023-07-22T19:08:06.180Z,28.94
2023-07-22T19:10:46.310Z,28.86
2023-07-22T19:13:17.350Z,28.78
2023-07-22T19:15:52.060Z,28.69
2023-07-22T19:18:22.681Z,28.63
2023-07-22T19:21:01.016Z,28.57
2023-07-22T19:23:35.667Z,28.52
2023-07-22T19:26:08.516Z,28.48
2023-07-22T19:28:42.667Z,28.43
2023-07-22T19:31:16.491Z,28.37
2023-07-22T19:33:47.914Z,28.31
2023-07-22T19:36:23.513Z,28.25
2023-07-22T19:39:00.523Z,28.18
2023-07-22T19:41:31.161Z,28.13
2023-07-22T19:44:04.939Z,28.11
2023-07-22T19:46:35.492Z,28.07
2023-07-22T19:49:06.101Z,28.02
2023-07-22T19:51:36.803Z,27.97
2023-07-22T19:54:08.723Z,27.93
2023-07-22T19:56:41.975Z,27.88
2023-07-22T19:59:12.418Z,27.86
2023-07-22T20:01:45.120Z,27.81
2023-07-22T20:04:19.719Z,27.78
2023-07-22T20:06:53.191Z,27.76
2023-07-22T20:09:24.258Z,27.72
2023-07-22T20:11:56.441Z,27.69
2023-07-22T20:14:34.042Z,27.65
2023-07-22T20:17:12.422Z,27.62
2023-07-22T20:19:52.434Z,27.60
2023-07-22T20:22:27.794Z,27.56
2023-07-22T20:24:58.126Z,27.54
2023-07-22T20:27:32.391Z,27.50
2023-07-22T20:30:04.262Z,27.46
2023-07-22T20:32:37.679Z,27.42
2023-07-22T20:35:13.996Z,27.38
2023-07-22T20:37:47.650Z,27.35
2023-07-22T20:40:19.887Z,27.32
2023-07-22T20:42:52.456Z,27.28
2023-07-22T20:45:25.813Z,27.24
2023-07-22T20:47:56.819Z,27.22
2023-07-22T20:50:27.794Z,27.20
2023-07-22T20:53:06.878Z,27.17
2023-07-22T20:55:51.238Z,27.15
2023-07-22T20:58:23.961Z,27.10
2023-07-22T21:01:02.690Z,27.05
2023-07-22T21:03:33.320Z,27.04
2023-07-22T21:06:04.046Z,27.01
2023-07-22T21:08:36.715Z,26.99
2023-07-22T21:11:12.101Z,26.96
2023-07-22T21:13:42.847Z,26.92
2023-07-22T21:16:16.700Z,26.88
2023-07-22T21:18:49.734Z,26.86
2023-07-22T21:21:23.469Z,26.84
2023-07-22T21:23:54.083Z,26.83
2023-07-22T21:26:27.697Z,26.83
2023-07-22T21:29:00.320Z,26.82
2023-07-22T21:31:32.285Z,26.81
2023-07-22T21:34:14.302Z,26.78
2023-07-22T21:36:51.823Z,26.74
2023-07-22T21:39:21.238Z,26.73
2023-07-22T21:42:00.033Z,26.71
2023-07-22T21:44:32.029Z,26.68
2023-07-22T21:47:03.841Z,26.68
2023-07-22T21:49:38.629Z,26.67
2023-07-22T21:52:09.954Z,26.63
2023-07-22T21:54:40.865Z,26.59
2023-07-22T21:57:11.800Z,26.56
2023-07-22T21:59:43.657Z,26.53
2023-07-22T22:02:14.745Z,26.50
2023-07-22T22:04:53.852Z,26.47
2023-07-22T22:07:23.076Z,26.43
2023-07-22T22:09:52.520Z,26.39
2023-07-22T22:12:21.558Z,26.34
2023-07-22T22:14:54.511Z,26.31
2023-07-22T22:17:23.675Z,26.27
2023-07-22T22:19:52.914Z,26.26
2023-07-22T22:22:26.013Z,26.24
2023-07-22T22:24:55.009Z,26.20
2023-07-22T22:27:25.143Z,26.17
2023-07-22T22:29:54.592Z,26.12
2023-07-22T22:32:24.082Z,26.07
2023-07-22T22:34:55.602Z,26.04
2023-07-22T22:37:24.758Z,26.00
2023-07-22T22:39:54.779Z,25.96
2023-07-22T22:42:25.909Z,25.93
2023-07-22T22:44:57.276Z,25.90
2023-07-22T22:47:26.280Z,25.88
2023-07-22T22:49:56.975Z,25.87
2023-07-22T22:52:25.917Z,25.85
2023-07-22T22:54:55.100Z,25.84
2023-07-22T22:57:24.559Z,25.83
2023-07-22T22:59:53.575Z,25.83
2023-07-22T23:02:22.650Z,25.82
2023-07-22T23:04:55.609Z,25.81
2023-07-22T23:07:33.370Z,25.79
2023-07-22T23:10:06.233Z,25.79
2023-07-22T23:12:39.973Z,25.79
2023-07-22T23:15:48.087Z,25.78
2023-07-22T23:18:22.999Z,25.79
2023-07-22T23:21:05.432Z,25.79
2023-07-22T23:23:44.624Z,25.78
2023-07-22T23:26:14.121Z,25.77
2023-07-22T23:28:51.890Z,25.77
2023-07-22T23:31:21.577Z,25.76
2023-07-22T23:33:51.376Z,25.74
2023-07-22T23:36:21.307Z,25.72
2023-07-22T23:38:54.521Z,25.71
2023-07-22T23:41:28.142Z,25.69
2023-07-22T23:44:00.127Z,25.67
2023-07-22T23:46:35.146Z,25.64
2023-07-22T23:49:08.518Z,25.62
2023-07-22T23:51:54.554Z,25.59
2023-07-22T23:54:25.017Z,25.57
2023-07-22T23:56:57.305Z,25.53
2023-07-22T23:59:26.810Z,25.51
